Coloma, MI (49039)

6:19 AM EDT on August 24, 2016 (GMT -0400)
East Paw Paw Lake | | Change Station

Elev 663 ft 42.21 °N, 86.25 °W | Updated 9 seconds ago

Overcast
Overcast
67.8 °F
Feels Like 67.8 °F
N
0.0
Wind Variable Wind from South
Gusts 2.0 mph

Today
High -- | Low -- °F
--% Chance of Precip.
Yesterday
High -- | Low -- °F
Precip. -- in
Pressure 30.05 in
Visibility 10.0 miles
Clouds Scattered Clouds 6500 ft
Mostly Cloudy 8000 ft
Overcast 10000 ft
Dew Point 64 °F
Humidity 87%
Rainfall 0.00 in
Snow Depth Not available.
7:02 AM 8:31 PM
Waning Gibbous, 58% visible
METAR KBEH 240953Z AUTO 17008KT 10SM SCT065 BKN080 OVC100 22/16 A3006 RMK AO2 SLP174 T02170161
Pressure 30.05 in
Visibility 10.0 miles
Clouds Scattered Clouds 6500 ft
Mostly Cloudy 8000 ft
Overcast 10000 ft
Dew Point 64 °F
Humidity 87%
Rainfall 0.00 in
Snow Depth Not available.
7:02 AM 8:31 PM
Waning Gibbous, 58% visible
METAR KBEH 240953Z AUTO 17008KT 10SM SCT065 BKN080 OVC100 22/16 A3006 RMK AO2 SLP174 T02170161

10-Day Weather Forecast

Almanac

Astronomy

Aug. 24, 2016 Rise Set
Actual Time
Civil Twilight
Nautical Twilight
Astronomical Twilight
Moon
Length of Visible Light
Length of Day
Tomorrow will be .
, % of the Moon is Illuminated

Today's Extremes

State Highs State Lows

Community

WunderPhotos

Upload Photos

1,934,560 photos uploaded!

WunderBlog® & News

Nearby

Air Quality

  Air Quality AQ Index Pollutant
Not available.

Snow Depth

Station Depth Elevation

Earthquake Activity

City Distance Mag. Time & Date
Minimum magnitude displayed is 2.5.

Coastal Water Temperatures

Place Temperature

Stations

Nearby Weather Stations

Station Location Temp. Windchill Dew Point Humidity Wind Precip. Elev Updated Type
                   

Watches & Warnings

There are currently no watches in effect.